Time;durP1;ratioP1;P1;durP2;ratioP2;P2;SDS_P1;SDS_P2;PMS_P1;PMS_P2;Temp;Humidity;BMP_temperature;BMP_pressure;BME280_temperature;BME280_humidity;BME280_pressure;Samples;Min_cycle;Max_cycle;Signal;HPM_P1;HPM_P2
2021/01/31 00:02:05;;;;;;;36.60;19.53;;;;;;;3.33;90.76;99782.63;1714187;84;22104;-73
2021/01/31 00:04:38;;;;;;;38.93;21.87;;;;;;;3.32;90.57;99790.55;1714035;83;21832;-75
2021/01/31 00:07:10;;;;;;;45.73;22.63;;;;;;;3.32;90.47;99798.78;1725684;82;21919;-74
2021/01/31 00:09:43;;;;;;;42.87;24.23;;;;;;;3.32;90.31;99803.75;1745626;82;21336;-74
2021/01/31 00:12:16;;;;;;;47.63;25.67;;;;;;;3.34;90.17;99808.97;1745848;82;21364;-74
2021/01/31 00:14:48;;;;;;;46.43;24.50;;;;;;;3.42;90.24;99809.46;1745883;81;21179;-76
2021/01/31 00:17:21;;;;;;;40.33;23.02;;;;;;;3.45;89.97;99804.89;1745939;82;21872;-76
2021/01/31 00:19:54;;;;;;;47.30;26.42;;;;;;;3.48;89.78;99809.08;1745884;82;21936;-74
2021/01/31 00:22:26;;;;;;;48.37;25.67;;;;;;;3.45;89.62;99804.05;1745800;82;21324;-75
2021/01/31 00:24:59;;;;;;;48.30;27.27;;;;;;;3.55;89.73;99811.16;1745904;82;21392;-74
2021/01/31 00:27:32;;;;;;;45.08;26.50;;;;;;;3.73;89.75;99809.69;1745758;82;21387;-74
2021/01/31 00:30:09;;;;;;;45.27;25.77;;;;;;;3.96;89.53;99808.28;1745617;82;21348;-76
2021/01/31 00:32:42;;;;;;;44.17;23.80;;;;;;;4.11;88.96;99816.88;1745638;82;21424;-76
2021/01/31 00:35:17;;;;;;;41.77;24.77;;;;;;;4.16;88.26;99819.74;1745760;82;21175;-75
2021/01/31 00:37:50;;;;;;;43.80;25.07;;;;;;;4.11;87.78;99823.75;1745654;82;21210;-75
2021/01/31 00:40:24;;;;;;;41.17;23.80;;;;;;;4.08;87.57;99825.58;1745603;82;21344;-75
2021/01/31 00:42:57;;;;;;;46.13;25.70;;;;;;;4.14;87.88;99824.09;1745616;82;21329;-76
2021/01/31 00:45:31;;;;;;;46.70;25.70;;;;;;;4.19;87.98;99832.45;1745860;82;21384;-75
2021/01/31 00:48:03;;;;;;;47.90;25.07;;;;;;;4.30;87.92;99832.98;1745541;82;21348;-77
2021/01/31 00:50:37;;;;;;;51.30;27.20;;;;;;;4.44;87.56;99841.77;1745697;81;21340;-76
2021/01/31 00:53:12;;;;;;;47.33;26.73;;;;;;;4.61;87.40;99843.54;1745294;82;21844;-76
2021/01/31 00:55:47;;;;;;;46.50;25.77;;;;;;;4.79;87.04;99841.14;1746035;82;21230;-75
2021/01/31 00:58:21;;;;;;;49.48;27.20;;;;;;;4.92;86.66;99835.35;1745573;81;21867;-74
2021/01/31 01:00:54;;;;;;;50.73;27.10;;;;;;;5.01;86.26;99844.34;1745889;82;21597;-74
2021/01/31 01:03:27;;;;;;;51.00;29.07;;;;;;;5.05;85.83;99839.18;1745931;82;21940;-74
2021/01/31 01:06:01;;;;;;;46.60;23.63;;;;;;;4.99;85.21;99839.63;1745809;82;21880;-74
2021/01/31 01:08:34;;;;;;;52.93;26.35;;;;;;;4.91;84.95;99837.81;1745911;82;21210;-75
2021/01/31 01:11:07;;;;;;;43.25;25.15;;;;;;;4.85;84.98;99837.42;1745819;82;21955;-75
2021/01/31 01:13:40;;;;;;;49.20;25.33;;;;;;;4.86;84.95;99826.71;1746109;82;21332;-77
2021/01/31 01:16:13;;;;;;;47.73;25.35;;;;;;;4.88;84.75;99835.57;1745823;82;21356;-77
2021/01/31 01:18:45;;;;;;;46.13;26.90;;;;;;;4.85;84.36;99838.27;1745794;82;21194;-75
2021/01/31 01:21:19;;;;;;;45.40;25.75;;;;;;;4.82;84.29;99839.30;1745880;82;21253;-75
2021/01/31 01:23:51;;;;;;;39.33;23.27;;;;;;;4.81;84.17;99848.07;1745825;82;21741;-74
2021/01/31 01:26:29;;;;;;;39.97;23.73;;;;;;;4.80;83.94;99857.93;1745738;82;21332;-75
2021/01/31 01:29:02;;;;;;;45.43;25.07;;;;;;;4.80;83.90;99852.43;1745702;82;21352;-75
2021/01/31 01:31:35;;;;;;;42.97;23.53;;;;;;;4.79;83.85;99846.12;1745594;82;21257;-75
2021/01/31 01:34:08;;;;;;;45.50;25.48;;;;;;;4.81;83.86;99845.33;1745722;82;21321;-76
2021/01/31 01:36:40;;;;;;;44.70;24.82;;;;;;;4.85;83.81;99841.54;1746086;82;21340;-75
2021/01/31 01:39:13;;;;;;;;;;;;;;;4.84;83.68;99850.88;1748325;82;21230;-75
2021/01/31 01:41:46;;;;;;;39.40;21.30;;;;;;;4.87;83.71;99844.88;1745913;82;20576;-75
2021/01/31 01:44:19;;;;;;;42.83;21.80;;;;;;;4.89;83.55;99855.11;1745913;82;21197;-75
2021/01/31 01:46:53;;;;;;;34.92;19.95;;;;;;;4.89;83.49;99859.23;1745895;81;21178;-75
2021/01/31 01:49:29;;;;;;;39.00;19.67;;;;;;;4.94;83.52;99867.03;1721669;82;21374;-75
2021/01/31 01:52:18;;;;;;;37.55;20.48;;;;;;;4.91;83.24;99861.19;1745951;82;21701;-75
2021/01/31 01:54:55;;;;;;;35.03;20.57;;;;;;;4.86;83.08;99869.33;1745833;82;21367;-75
2021/01/31 01:57:30;;;;;;;37.73;21.80;;;;;;;4.87;83.28;99870.99;1746643;82;21324;-75
2021/01/31 02:00:05;;;;;;;30.45;17.90;;;;;;;4.90;83.21;99876.02;1746766;82;21202;-75
2021/01/31 02:02:41;;;;;;;33.55;19.25;;;;;;;5.01;83.23;99883.40;1746059;81;21649;-77
2021/01/31 02:05:15;;;;;;;35.48;20.37;;;;;;;5.12;83.07;99892.16;1745806;82;21313;-77
2021/01/31 02:07:49;;;;;;;35.53;18.47;;;;;;;5.18;82.84;99902.14;1745685;82;21355;-74
2021/01/31 02:10:23;;;;;;;33.97;19.30;;;;;;;5.27;82.65;99914.44;1745559;82;21340;-76
2021/01/31 02:12:59;;;;;;;33.33;18.43;;;;;;;5.28;82.24;99933.46;1745669;81;21341;-74
2021/01/31 02:15:33;;;;;;;31.73;18.37;;;;;;;5.22;81.89;99934.97;1745969;82;21329;-76
2021/01/31 02:18:16;;;;;;;33.50;18.77;;;;;;;5.22;81.82;99954.23;1746100;82;21376;-76
2021/01/31 02:21:39;;;;;;;31.05;18.20;;;;;;;5.23;81.59;99960.02;1745863;82;21253;-75
2021/01/31 02:24:56;;;;;;;28.67;17.53;;;;;;;5.17;81.27;99968.72;1742759;82;21368;-74
2021/01/31 02:28:10;;;;;;;24.53;16.27;;;;;;;5.09;81.24;99971.02;1745885;82;21749;-76
2021/01/31 02:31:12;;;;;;;28.90;16.90;;;;;;;4.98;81.08;99987.84;1746219;82;21214;-75
2021/01/31 02:34:01;;;;;;;29.57;17.17;;;;;;;4.92;81.04;99987.96;1746388;82;21321;-76
2021/01/31 02:36:45;;;;;;;26.27;15.97;;;;;;;4.85;80.97;100012.00;1745865;82;21198;-75
2021/01/31 02:39:47;;;;;;;24.10;14.83;;;;;;;4.87;80.92;100013.44;1746613;82;21182;-75
2021/01/31 02:42:46;;;;;;;27.57;15.83;;;;;;;4.87;80.62;100027.19;1745722;82;21325;-75
2021/01/31 02:45:40;;;;;;;28.03;14.47;;;;;;;4.79;80.47;100028.09;1745980;81;21328;-75
2021/01/31 02:48:30;;;;;;;23.77;15.03;;;;;;;4.71;80.37;100031.20;1745701;82;21340;-75
2021/01/31 02:51:10;;;;;;;23.90;12.90;;;;;;;4.65;80.48;100037.66;1745805;82;21352;-72
2021/01/31 02:54:03;;;;;;;27.20;16.97;;;;;;;4.61;80.38;100044.69;1745768;82;21194;-74
2021/01/31 02:57:06;;;;;;;27.67;17.27;;;;;;;4.54;80.13;100053.07;1745615;82;21273;-72
2021/01/31 02:59:56;;;;;;;26.12;15.23;;;;;;;4.50;80.11;100061.48;1745851;82;21340;-72
2021/01/31 03:02:32;;;;;;;27.17;16.20;;;;;;;4.45;79.90;100068.22;1745793;81;21874;-75
2021/01/31 03:05:20;;;;;;;26.77;15.00;;;;;;;4.40;79.95;100064.52;1745993;82;21380;-76
2021/01/31 03:08:06;;;;;;;23.57;12.73;;;;;;;4.36;80.01;100066.05;1745635;82;21324;-76
2021/01/31 03:11:02;;;;;;;30.13;16.30;;;;;;;4.32;79.90;100078.05;1745393;82;21359;-76
2021/01/31 03:13:56;;;;;;;27.20;14.87;;;;;;;4.25;79.89;100097.06;1746183;82;21336;-76
2021/01/31 03:16:44;;;;;;;27.35;14.18;;;;;;;4.21;80.05;100101.37;1747445;82;21344;-76
2021/01/31 03:19:29;;;;;;;23.10;14.67;;;;;;;4.13;80.02;100101.69;1747363;82;21356;-73
2021/01/31 03:22:04;;;;;;;27.97;16.53;;;;;;;4.02;80.34;100095.61;1746368;82;21822;-75
2021/01/31 03:24:40;;;;;;;29.60;17.33;;;;;;;3.96;80.24;100114.39;1746117;82;21709;-77
2021/01/31 03:27:38;;;;;;;29.83;18.20;;;;;;;3.87;80.11;100134.48;1746022;82;21198;-76
2021/01/31 03:30:14;;;;;;;30.80;19.83;;;;;;;3.85;80.35;100144.84;1745634;82;21336;-75
2021/01/31 03:33:00;;;;;;;36.00;22.17;;;;;;;3.87;80.55;100152.33;1746134;82;21226;-76
2021/01/31 03:35:46;;;;;;;39.97;22.27;;;;;;;3.88;80.52;100151.26;1745988;82;21340;-76
2021/01/31 03:38:39;;;;;;;37.57;21.87;;;;;;;3.89;80.45;100146.59;1746162;82;21820;-77
2021/01/31 03:41:18;;;;;;;36.30;21.53;;;;;;;3.82;80.48;100154.92;1724330;82;21408;-76
2021/01/31 03:43:52;;;;;;;46.77;22.87;;;;;;;3.74;80.68;100166.20;1746203;82;21182;-77
2021/01/31 03:46:40;;;;;;;41.40;26.63;;;;;;;3.78;80.90;100174.84;1746462;82;21601;-73
2021/01/31 03:49:31;;;;;;;47.20;27.37;;;;;;;3.74;80.90;100186.77;1745839;82;21384;-76
2021/01/31 03:52:04;;;;;;;42.60;26.60;;;;;;;3.74;81.04;100206.54;1746018;82;21349;-75
2021/01/31 03:54:38;;;;;;;41.17;23.50;;;;;;;3.77;80.93;100214.30;1746092;82;21217;-75
2021/01/31 03:57:32;;;;;;;39.23;22.57;;;;;;;3.75;80.73;100226.91;1746558;82;21352;-79
2021/01/31 04:00:28;;;;;;;39.73;24.00;;;;;;;3.71;80.71;100221.55;1694420;84;21347;-73
2021/01/31 04:03:19;;;;;;;42.93;25.13;;;;;;;3.72;81.03;100227.89;1663930;85;21806;-74
2021/01/31 04:06:08;;;;;;;41.70;25.17;;;;;;;3.82;81.01;100221.33;1671275;86;21274;-76
2021/01/31 04:08:42;;;;;;;49.17;28.63;;;;;;;3.81;80.91;100230.63;1700709;84;21388;-75
2021/01/31 04:11:37;;;;;;;41.70;24.13;;;;;;;3.77;80.90;100230.77;1694083;84;21352;-77
2021/01/31 04:14:23;;;;;;;38.57;22.53;;;;;;;3.71;80.88;100227.05;1674697;86;21335;-74
2021/01/31 04:16:56;;;;;;;37.23;23.57;;;;;;;3.68;80.88;100239.02;1673938;84;21840;-74
2021/01/31 04:19:28;;;;;;;38.97;23.60;;;;;;;3.64;81.09;100250.13;1702965;84;21211;-75
2021/01/31 04:22:01;;;;;;;49.63;25.43;;;;;;;3.62;81.14;100246.78;1703117;84;21337;-75
2021/01/31 04:24:35;;;;;;;46.50;25.37;;;;;;;3.64;81.19;100252.88;1702969;84;21207;-75
2021/01/31 04:27:09;;;;;;;43.43;23.40;;;;;;;3.65;81.09;100259.52;1703032;84;21686;-80
2021/01/31 04:29:41;;;;;;;;;;;;;;;3.64;80.98;100260.58;1705432;84;21202;-75
2021/01/31 04:32:13;;;;;;;41.47;22.70;;;;;;;3.60;80.82;100272.25;1703229;84;20511;-77
2021/01/31 04:34:47;;;;;;;48.42;22.80;;;;;;;3.55;80.99;100273.45;1703132;84;21291;-75
2021/01/31 04:37:20;;;;;;;;;;;;;;;3.57;80.98;100273.53;1705568;84;21207;-75
2021/01/31 04:39:53;;;;;;;45.83;24.20;;;;;;;3.54;80.82;100273.15;1702957;84;20184;-75
2021/01/31 04:42:25;;;;;;;48.30;24.63;;;;;;;3.51;80.72;100288.67;1703342;84;21191;-74
2021/01/31 04:44:58;;;;;;;37.57;20.70;;;;;;;3.48;80.69;100298.73;1703168;84;21241;-75
2021/01/31 04:47:41;;;;;;;38.70;20.43;;;;;;;3.45;80.62;100311.52;1703053;84;21210;-75
2021/01/31 04:50:18;;;;;;;41.23;23.13;;;;;;;3.44;80.64;100318.08;1702882;84;21230;-75
2021/01/31 04:53:08;;;;;;;44.80;22.90;;;;;;;3.45;80.60;100333.47;1703010;84;21233;-75
2021/01/31 04:56:00;;;;;;;42.80;23.03;;;;;;;3.49;80.53;100334.70;1702916;84;21213;-75
2021/01/31 04:58:46;;;;;;;46.60;25.33;;;;;;;3.48;80.46;100349.50;1703012;84;21246;-75
2021/01/31 05:01:29;;;;;;;45.90;24.63;;;;;;;3.48;80.26;100361.29;1675843;84;21298;-75
2021/01/31 05:04:05;;;;;;;43.83;25.77;;;;;;;3.45;80.14;100366.38;1702853;84;21250;-76
2021/01/31 05:06:48;;;;;;;51.63;29.07;;;;;;;3.45;80.17;100374.09;1700480;84;21194;-74
2021/01/31 05:09:24;;;;;;;56.18;32.45;;;;;;;3.48;80.14;100385.16;1703106;84;21253;-75
2021/01/31 05:12:24;;;;;;;59.67;32.57;;;;;;;3.45;80.06;100391.08;1703899;83;21262;-76
2021/01/31 05:15:17;;;;;;;59.17;32.03;;;;;;;3.44;79.98;100407.23;1709958;84;21270;-75
2021/01/31 05:17:53;;;;;;;60.00;31.13;;;;;;;3.40;79.92;100415.06;1710139;84;21171;-75
2021/01/31 05:20:29;;;;;;;60.40;32.30;;;;;;;3.39;79.77;100420.77;1709861;84;21392;-75
2021/01/31 05:23:02;;;;;;;58.87;31.27;;;;;;;3.40;79.89;100426.55;1709979;84;21198;-75
2021/01/31 05:25:36;;;;;;;;;;;;;;;3.48;79.82;100435.91;1675535;84;21835;-75
2021/01/31 05:28:10;;;;;;;54.87;29.43;;;;;;;3.53;79.74;100451.16;1710174;84;20227;-75
2021/01/31 05:30:46;;;;;;;53.67;27.40;;;;;;;3.59;79.62;100466.73;1710299;84;21396;-75
2021/01/31 05:33:23;;;;;;;43.97;26.43;;;;;;;3.56;79.30;100478.17;1709851;84;21770;-75
2021/01/31 05:36:12;;;;;;;47.13;25.50;;;;;;;3.45;79.23;100484.35;1709988;84;21178;-76
2021/01/31 05:38:47;;;;;;;56.03;29.90;;;;;;;3.42;79.33;100489.74;1710076;84;21178;-75
2021/01/31 05:41:36;;;;;;;55.73;29.90;;;;;;;3.36;79.43;100487.87;1710088;84;21237;-74
2021/01/31 05:44:17;;;;;;;49.53;27.13;;;;;;;3.37;79.40;100495.59;1709957;84;21183;-75
2021/01/31 05:46:53;;;;;;;48.50;24.43;;;;;;;3.33;79.44;100502.56;1710000;84;21756;-74
2021/01/31 05:49:40;;;;;;;44.83;23.50;;;;;;;3.29;79.18;100495.30;1709873;84;21388;-75
2021/01/31 05:52:29;;;;;;;46.77;25.03;;;;;;;3.25;79.19;100493.22;1710061;84;21214;-76
2021/01/31 05:55:05;;;;;;;44.13;25.07;;;;;;;3.23;79.42;100496.17;1710044;84;21214;-76
2021/01/31 05:57:38;;;;;;;48.63;26.13;;;;;;;3.21;79.47;100511.16;1692626;84;21722;-76
2021/01/31 06:00:21;;;;;;;44.77;25.05;;;;;;;3.14;79.49;100508.98;1710004;84;21345;-76
2021/01/31 06:03:08;;;;;;;41.33;24.07;;;;;;;3.09;79.55;100508.27;1708714;84;21736;-76
2021/01/31 06:05:42;;;;;;;42.67;22.60;;;;;;;3.10;79.65;100498.98;1709950;84;21277;-75
2021/01/31 06:08:29;;;;;;;40.83;22.37;;;;;;;3.13;79.55;100490.86;1709837;84;21348;-76
2021/01/31 06:11:08;;;;;;;38.70;22.13;;;;;;;3.14;79.50;100491.16;1710073;84;21201;-76
2021/01/31 06:13:41;;;;;;;43.80;21.83;;;;;;;3.12;79.15;100485.06;1708433;83;21373;-76
2021/01/31 06:16:19;;;;;;;38.02;20.72;;;;;;;3.06;79.09;100490.87;1707010;84;22235;-75
2021/01/31 06:19:02;;;;;;;43.83;21.53;;;;;;;3.03;79.25;100500.06;1706882;84;21356;-76
2021/01/31 06:21:42;;;;;;;40.10;21.10;;;;;;;3.04;79.26;100501.73;1706921;83;21202;-75
2021/01/31 06:24:30;;;;;;;44.33;21.50;;;;;;;3.11;79.17;100505.32;1706895;84;21396;-75
2021/01/31 06:27:03;;;;;;;39.87;20.80;;;;;;;3.13;78.61;100510.88;1706828;84;21345;-75
2021/01/31 06:30:11;;;;;;;40.30;22.32;;;;;;;3.15;78.62;100509.29;1707096;84;21388;-75
2021/01/31 06:32:44;;;;;;;37.10;19.70;;;;;;;3.13;78.32;100525.13;1706809;84;21353;-76
2021/01/31 06:35:18;;;;;;;34.45;19.60;;;;;;;3.12;78.50;100521.53;1707167;84;21179;-77
2021/01/31 06:38:05;;;;;;;;;;;;;;;3.19;78.55;100526.45;1709470;83;21341;-76
2021/01/31 06:40:54;;;;;;;40.97;22.67;;;;;;;3.26;78.66;100547.02;1707110;84;20261;-76
2021/01/31 06:44:08;;;;;;;39.50;21.87;;;;;;;3.31;78.51;100558.18;1703567;84;21210;-78
2021/01/31 06:47:28;;;;;;;35.73;21.17;;;;;;;3.35;78.18;100557.52;1705843;84;21368;-76
2021/01/31 06:50:21;;;;;;;31.87;18.80;;;;;;;3.36;78.02;100565.23;1707163;84;21249;-73
2021/01/31 06:53:20;;;;;;;33.83;20.73;;;;;;;3.41;77.95;100572.25;1706967;84;21812;-75
2021/01/31 06:56:11;;;;;;;35.00;20.53;;;;;;;3.45;77.79;100579.86;1706917;84;21843;-75
2021/01/31 06:59:26;;;;;;;36.73;19.13;;;;;;;3.56;77.58;100581.89;1680018;84;21333;-75
2021/01/31 07:02:27;;;;;;;31.60;17.73;;;;;;;3.66;77.13;100591.06;1707080;84;21333;-79
2021/01/31 07:05:25;;;;;;;31.67;17.57;;;;;;;3.69;76.00;100599.70;1704048;84;21376;-77
2021/01/31 07:08:26;;;;;;;33.23;18.80;;;;;;;3.71;76.04;100605.80;1707137;84;21345;-80
2021/01/31 07:11:29;;;;;;;34.23;17.50;;;;;;;3.76;75.98;100610.63;1706980;83;21255;-77
2021/01/31 07:14:45;;;;;;;31.63;18.93;;;;;;;3.81;75.48;100632.78;1707736;82;21226;-78
2021/01/31 07:17:28;;;;;;;29.93;17.00;;;;;;;3.81;74.42;100638.27;1708904;84;21250;-77
2021/01/31 07:20:15;;;;;;;28.23;16.67;;;;;;;3.75;73.55;100635.02;1712598;83;21194;-76
2021/01/31 07:22:55;;;;;;;29.87;16.00;;;;;;;3.72;73.72;100647.28;1712504;83;21871;-76
2021/01/31 07:25:39;;;;;;;28.53;15.00;;;;;;;3.69;73.71;100642.75;1712436;83;21348;-74
2021/01/31 07:28:37;;;;;;;28.25;16.70;;;;;;;3.71;73.67;100647.48;1712478;84;21329;-75
2021/01/31 07:31:20;;;;;;;26.33;16.10;;;;;;;3.73;73.13;100650.33;1712230;83;21356;-75
2021/01/31 07:34:12;;;;;;;29.53;16.10;;;;;;;3.76;72.89;100656.77;1712451;84;21380;-76
2021/01/31 07:37:12;;;;;;;24.43;14.83;;;;;;;3.79;72.78;100674.16;1712397;84;21364;-76
2021/01/31 07:40:08;;;;;;;27.93;16.73;;;;;;;3.81;72.20;100671.20;1712341;84;21353;-75
2021/01/31 07:42:42;;;;;;;23.50;14.47;;;;;;;3.76;72.11;100671.87;1712252;83;21329;-75
2021/01/31 07:45:21;;;;;;;27.50;16.13;;;;;;;3.74;71.64;100673.14;1712194;84;21365;-75
2021/01/31 07:48:32;;;;;;;28.03;16.90;;;;;;;3.70;71.74;100680.11;1712153;84;21333;-74
2021/01/31 07:51:05;;;;;;;24.70;14.07;;;;;;;3.68;72.06;100683.62;1691395;84;21449;-75
2021/01/31 07:53:40;;;;;;;22.98;14.23;;;;;;;3.63;71.25;100682.90;1712250;84;21191;-77
2021/01/31 07:56:35;;;;;;;22.83;14.17;;;;;;;3.62;71.70;100672.95;1700623;84;21384;-74
2021/01/31 07:59:16;;;;;;;19.67;13.80;;;;;;;3.65;71.71;100652.47;1735527;82;21246;-75
2021/01/31 08:01:56;;;;;;;23.77;14.43;;;;;;;3.70;71.93;100659.02;1720692;82;21206;-75
2021/01/31 08:04:42;;;;;;;22.80;14.67;;;;;;;3.73;71.52;100669.55;1726692;83;21315;-75
2021/01/31 08:07:18;;;;;;;24.30;14.60;;;;;;;3.73;71.54;100685.19;1727605;83;21382;-76
2021/01/31 08:09:54;;;;;;;23.50;13.93;;;;;;;3.72;70.89;100682.13;1689205;84;21256;-77
2021/01/31 08:12:51;;;;;;;25.77;15.17;;;;;;;3.72;71.25;100676.09;1716121;83;21419;-76
2021/01/31 08:15:39;;;;;;;25.73;14.80;;;;;;;3.73;71.01;100672.84;1724162;81;21677;-76
2021/01/31 08:18:12;;;;;;;25.13;16.07;;;;;;;3.72;70.58;100670.61;1723472;83;21213;-75
2021/01/31 08:20:56;;;;;;;27.52;16.62;;;;;;;3.74;70.47;100666.28;1694746;84;21375;-77
2021/01/31 08:23:44;;;;;;;31.87;17.00;;;;;;;3.77;70.76;100665.31;1694956;84;21356;-76
2021/01/31 08:29:22;;;;;;;30.10;17.73;;;;;;;3.78;70.20;100682.64;1694775;84;21340;-75
2021/01/31 08:32:05;;;;;;;29.00;17.43;;;;;;;3.74;70.08;100687.69;1695214;84;21959;-75
2021/01/31 08:35:04;;;;;;;31.80;17.03;;;;;;;3.76;70.11;100698.47;1694797;84;21858;-76
2021/01/31 08:37:37;;;;;;;31.03;17.40;;;;;;;3.77;70.56;100701.00;1695006;84;21368;-75
2021/01/31 08:40:18;;;;;;;32.27;17.83;;;;;;;3.77;69.96;100700.14;1695207;84;21344;-76
2021/01/31 08:42:53;;;;;;;32.33;18.43;;;;;;;3.77;70.28;100704.27;1695071;84;21448;-75
2021/01/31 08:45:40;;;;;;;32.27;18.23;;;;;;;3.78;70.27;100717.78;1694978;84;21360;-75
2021/01/31 08:48:25;;;;;;;29.97;17.10;;;;;;;3.78;69.69;100733.42;1674486;84;21205;-74
2021/01/31 08:51:17;;;;;;;29.73;18.23;;;;;;;3.75;69.47;100733.84;1694105;84;21355;-77
2021/01/31 08:54:13;;;;;;;33.33;18.60;;;;;;;3.74;69.32;100747.26;1695049;84;21340;-76
2021/01/31 08:56:55;;;;;;;30.90;18.60;;;;;;;3.62;68.32;100752.55;1703334;83;21375;-76
2021/01/31 08:59:45;;;;;;;32.27;18.40;;;;;;;3.52;68.54;100749.41;1729638;81;21315;-78
2021/01/31 09:02:30;;;;;;;32.40;18.57;;;;;;;3.44;69.34;100754.28;1726552;81;21410;-77
2021/01/31 09:05:23;;;;;;;31.70;17.07;;;;;;;3.40;69.63;100762.09;1729710;83;21311;-76
2021/01/31 09:07:55;;;;;;;31.10;18.37;;;;;;;3.40;69.08;100774.95;1729724;83;21315;-75
2021/01/31 09:10:44;;;;;;;28.13;18.00;;;;;;;3.35;68.76;100777.48;1725989;83;21323;-75
2021/01/31 09:13:31;;;;;;;33.83;18.37;;;;;;;3.31;69.33;100757.04;1729762;83;21342;-77
2021/01/31 09:16:24;;;;;;;29.77;18.23;;;;;;;3.26;68.98;100767.80;1727983;81;21257;-76
2021/01/31 09:19:25;;;;;;;31.20;19.03;;;;;;;3.23;69.67;100758.61;1729879;83;21372;-75
2021/01/31 09:22:15;;;;;;;29.80;17.90;;;;;;;3.23;69.97;100757.23;1729636;83;21344;-77
2021/01/31 09:24:51;;;;;;;37.47;20.63;;;;;;;3.28;70.19;100763.79;1729682;83;21814;-76
2021/01/31 09:27:25;;;;;;;36.10;20.47;;;;;;;3.39;70.21;100753.55;1729869;83;21807;-76
2021/01/31 09:30:02;;;;;;;31.07;18.00;;;;;;;3.50;69.99;100752.05;1729621;83;21863;-75
2021/01/31 09:32:42;;;;;;;32.87;19.63;;;;;;;3.55;69.76;100756.38;1729561;83;21355;-75
2021/01/31 09:35:19;;;;;;;28.07;16.97;;;;;;;3.56;69.29;100766.30;1729696;83;21367;-77
2021/01/31 09:37:53;;;;;;;28.20;17.73;;;;;;;3.55;69.53;100770.09;1729805;83;21343;-76
2021/01/31 09:40:26;;;;;;;30.43;17.90;;;;;;;3.52;68.87;100769.99;1724147;83;21352;-76
2021/01/31 09:42:59;;;;;;;29.80;18.17;;;;;;;3.50;68.77;100772.63;1723874;83;21693;-77
2021/01/31 09:45:38;;;;;;;28.55;15.88;;;;;;;3.49;67.73;100777.27;1724053;83;21338;-76
2021/01/31 09:48:13;;;;;;;27.83;17.23;;;;;;;3.45;67.11;100783.40;1723969;83;21202;-75
2021/01/31 09:50:53;;;;;;;25.73;15.70;;;;;;;3.37;67.34;100777.59;1723840;83;21190;-76
2021/01/31 09:53:40;;;;;;;23.83;14.40;;;;;;;3.36;67.41;100773.71;1724138;83;21356;-75
2021/01/31 09:56:39;;;;;;;28.60;16.20;;;;;;;3.37;67.07;100786.37;1724762;83;21213;-76
2021/01/31 09:59:33;;;;;;;24.10;15.27;;;;;;;3.34;66.20;100786.27;1726559;83;21561;-75
2021/01/31 10:02:21;;;;;;;;;;;;;;;3.44;65.83;100787.20;1725716;83;21344;-76
2021/01/31 10:05:02;;;;;;;32.70;15.60;;;;;;;3.51;65.13;100777.06;1725884;83;20265;-76
2021/01/31 10:07:38;;;;;;;23.43;14.67;;;;;;;3.54;65.52;100777.48;1723406;83;21380;-76
2021/01/31 10:10:37;;;;;;;25.90;13.90;;;;;;;3.60;65.15;100800.50;1722337;83;21797;-75
2021/01/31 10:13:31;;;;;;;25.17;14.90;;;;;;;3.63;64.75;100828.88;1651756;83;21766;-74
2021/01/31 10:16:06;;;;;;;18.40;11.80;;;;;;;3.60;64.19;100827.94;1721672;83;21332;-76
2021/01/31 10:18:40;;;;;;;20.20;11.50;;;;;;;3.56;62.88;100819.80;1716854;83;21228;-75
2021/01/31 10:21:29;;;;;;;18.33;11.83;;;;;;;3.53;63.04;100831.19;1720318;83;21250;-75
2021/01/31 10:24:18;;;;;;;22.30;12.07;;;;;;;3.52;64.00;100844.08;1720419;83;21202;-77
2021/01/31 10:26:51;;;;;;;22.33;13.67;;;;;;;3.57;63.81;100851.67;1720262;83;21238;-76
2021/01/31 10:29:32;;;;;;;24.77;13.53;;;;;;;3.58;64.28;100850.61;1720372;83;21324;-74
2021/01/31 10:32:39;;;;;;;20.60;13.67;;;;;;;3.63;64.56;100853.06;1720321;83;21736;-74
2021/01/31 10:35:34;;;;;;;24.90;14.07;;;;;;;3.72;64.55;100868.79;1716934;83;21279;-76
2021/01/31 10:38:28;;;;;;;28.47;13.80;;;;;;;3.74;64.53;100866.11;1719419;83;21748;-76
2021/01/31 10:41:02;;;;;;;22.07;14.23;;;;;;;3.75;64.58;100882.07;1719317;83;21253;-76
2021/01/31 10:43:35;;;;;;;26.37;14.28;;;;;;;3.77;64.54;100893.67;1720533;83;21338;-76
2021/01/31 10:46:07;;;;;;;25.00;14.75;;;;;;;3.78;64.29;100887.16;1720666;83;21348;-75
2021/01/31 10:48:40;;;;;;;23.87;14.13;;;;;;;3.77;64.48;100892.30;1720593;83;21190;-73
2021/01/31 10:51:13;;;;;;;22.27;13.53;;;;;;;3.71;63.53;100894.00;1720261;83;21233;-75
2021/01/31 10:53:46;;;;;;;27.82;13.78;;;;;;;3.68;63.26;100904.02;1720383;83;21253;-75
2021/01/31 10:56:19;;;;;;;;;;;;;;;3.58;62.12;100871.20;1722753;83;21225;-76
2021/01/31 10:58:51;;;;;;;22.07;12.97;;;;;;;3.45;62.60;100889.03;1720408;83;20255;-75
2021/01/31 11:01:27;;;;;;;27.75;12.80;;;;;;;3.36;63.26;100877.96;1720436;83;21318;-76
2021/01/31 11:04:00;;;;;;;22.83;12.30;;;;;;;3.33;63.19;100872.88;1720423;82;21205;-76
2021/01/31 11:06:33;;;;;;;21.90;13.27;;;;;;;3.30;62.86;100880.16;1728358;82;21340;-75
2021/01/31 11:09:06;;;;;;;24.32;13.58;;;;;;;3.27;63.76;100892.91;1748963;82;21333;-75
2021/01/31 11:11:39;;;;;;;24.80;13.70;;;;;;;3.24;64.05;100896.91;1749288;82;21231;-75
2021/01/31 11:14:11;;;;;;;;;;;;;;;3.28;64.55;100895.97;1750983;82;21709;-75
2021/01/31 11:16:55;;;;;;;;;;;;;;;;;;;;;
2021/01/31 11:19:21;;;;;;;23.33;13.87;;;;;;;3.31;63.60;100884.05;1742285;82;21408;-75
2021/01/31 11:21:54;;;;;;;22.95;14.45;;;;;;;3.33;63.98;100912.65;1738545;82;21329;-80
2021/01/31 11:24:27;;;;;;;60.57;24.90;;;;;;;3.35;64.19;100913.27;1738680;82;21241;-77
2021/01/31 11:27:02;;;;;;;27.33;15.97;;;;;;;3.36;64.04;100897.16;1738591;82;21804;-77
2021/01/31 11:29:34;;;;;;;22.50;14.00;;;;;;;3.35;63.52;100892.19;1738768;82;21372;-77
2021/01/31 11:32:07;;;;;;;22.93;13.70;;;;;;;3.38;63.41;100898.64;1738649;82;21210;-75
2021/01/31 11:34:40;;;;;;;44.43;24.37;;;;;;;3.38;63.41;100898.64;1738068;82;22395;-75
2021/01/31 11:37:14;;;;;;;29.93;17.97;;;;;;;3.40;64.11;100892.92;1738598;82;21852;-76
2021/01/31 11:39:46;;;;;;;24.23;15.43;;;;;;;3.44;64.53;100903.81;1737230;82;21400;-75
2021/01/31 11:42:19;;;;;;;30.20;16.80;;;;;;;3.48;64.37;100906.46;1678456;85;21305;-76
2021/01/31 11:44:52;;;;;;;23.33;13.53;;;;;;;3.49;63.68;100909.52;1722656;83;21826;-76
2021/01/31 11:47:24;;;;;;;24.43;14.60;;;;;;;3.51;64.22;100915.63;1692351;85;21661;-76
2021/01/31 11:49:57;;;;;;;26.20;14.95;;;;;;;3.55;64.76;100915.54;1695997;82;21221;-76
2021/01/31 11:52:30;;;;;;;26.48;15.83;;;;;;;3.58;64.36;100915.97;1728738;83;21851;-76
2021/01/31 11:55:03;;;;;;;21.40;13.88;;;;;;;3.62;64.60;100900.75;1717040;83;21214;-77
2021/01/31 11:57:37;;;;;;;21.42;13.53;;;;;;;3.65;64.83;100925.05;1707333;84;21357;-75
2021/01/31 12:00:14;;;;;;;25.33;15.13;;;;;;;3.70;64.69;100928.52;1729877;82;21234;-75
2021/01/31 12:02:46;;;;;;;22.03;12.97;;;;;;;3.71;64.59;100935.70;1716774;83;21213;-74
2021/01/31 12:05:20;;;;;;;26.07;14.35;;;;;;;3.73;63.74;100940.47;1731128;82;21325;-76
2021/01/31 12:07:54;;;;;;;24.53;14.93;;;;;;;3.68;64.06;100936.13;1715669;83;21233;-76
2021/01/31 12:10:27;;;;;;;28.52;15.25;;;;;;;3.65;64.44;100947.00;1704634;84;21300;-75
2021/01/31 12:13:01;;;;;;;24.23;14.45;;;;;;;3.67;64.54;100950.91;1733236;82;21840;-75
2021/01/31 12:15:36;;;;;;;27.27;15.60;;;;;;;3.64;64.03;100954.92;1728396;82;21645;-76
2021/01/31 12:18:08;;;;;;;24.77;14.47;;;;;;;3.65;63.53;100943.40;1725521;82;21336;-78
2021/01/31 12:20:42;;;;;;;23.30;13.45;;;;;;;3.62;63.39;100944.66;1726808;82;21217;-76
2021/01/31 12:23:14;;;;;;;27.27;14.80;;;;;;;3.54;63.69;100939.38;1712137;83;21287;-75
2021/01/31 12:25:49;;;;;;;26.35;15.43;;;;;;;3.51;63.80;100940.33;1715052;83;21245;-75
2021/01/31 12:28:22;;;;;;;24.37;14.70;;;;;;;3.46;63.59;100947.82;1716374;83;21650;-74
2021/01/31 12:30:55;;;;;;;;;;;;;;;3.50;63.47;100945.50;1718875;83;21408;-76